Sanders, MT (59076)

3:59 AM MDT on May 30, 2015 (GMT -0600)
MesoWest | | Change Station
CLOSE
Current Station
Personal Weather Station
Location: Bighorn, MT
Elevation: 3549 ft
Nearby Weather Stations

Elev 3549 ft 46.16 °N, 107.31 °W | Updated 51 minutes ago

Partly Cloudy
Partly Cloudy
48 °F
Feels Like 45 °F
N
6
Wind Variable Wind from East
Gusts 7.0 mph

Today
High -- | Low -- °F
--% Chance of Precip.
Yesterday
High -- | Low -- °F
Precip. -- in
5:21 AM 8:50 PM
Waxing Gibbous, 89% visible
Pressure 30.19 in
Visibility 10.0 miles
Clouds Clear
Windchill 45 °F
Dew Point 26 °F
Humidity 42%
Rainfall in
Snow Depth Not available.
UV 0 out of 12
Pollen 7.20 out of 12
Air Quality Not available.
Flu Activity Sporadic
METAR KMLS 300953Z AUTO 13010KT 10SM CLR 08/03 A3019 RMK AO2 SLP224 T00830028

More Conditions Fewer Conditions

Pressure 30.19 in
Visibility 10.0 miles
Clouds Clear
Windchill 45 °F
Dew Point 26 °F
Humidity 42%
Rainfall in
Snow Depth Not available.
UV 0 out of 12
Pollen 7.20 out of 12
Air Quality Not available.
Flu Activity Sporadic
METAR KMLS 300953Z AUTO 13010KT 10SM CLR 08/03 A3019 RMK AO2 SLP224 T00830028

More Conditions Fewer Conditions

10-Day Weather Forecast

Almanac

Astronomy

May. 30, 2015 Rise Set
Actual Time
Civil Twilight
Nautical Twilight
Astronomical Twilight
Moon
Length of Visible Light
Length of Day
Tomorrow will be .
, % of the Moon is Illuminated

Today's Extremes

State Highs State Lows

Community

WunderPhotos

Upload Photos

1,825,476 photos uploaded!

WunderBlogs® & News

Nearby

Air Quality

  Air Quality AQ Index Pollutant
Not available.

Snow Depth

Station Depth Elevation

Earthquake Activity

City Distance Mag. Time & Date
Minimum magnitude displayed is 2.5.

Coastal Water Temperatures

Place Temperature

Stations

Nearby Weather Stations

Station Location Temp. Windchill Dew Point Humidity Wind Precip. Elev Updated Type